createdAt,value
2023-02-28T00:01:29.678Z,95986.88
2023-02-28T00:03:58.195Z,95985.56
2023-02-28T00:06:26.084Z,95982.75
2023-02-28T00:08:54.102Z,95984.53
2023-02-28T00:11:23.127Z,95977.50
2023-02-28T00:13:51.360Z,95978.00
2023-02-28T00:16:21.120Z,95983.41
2023-02-28T00:18:49.852Z,95985.78
2023-02-28T00:21:18.419Z,95978.63
2023-02-28T00:23:46.361Z,95978.22
2023-02-28T00:26:14.243Z,95982.69
2023-02-28T00:28:48.268Z,95977.28
2023-02-28T00:31:15.874Z,95970.97
2023-02-28T00:33:44.252Z,95976.13
2023-02-28T00:36:13.632Z,95980.38
2023-02-28T00:38:42.883Z,95970.22
2023-02-28T00:41:11.195Z,95976.56
2023-02-28T00:43:41.656Z,95969.50
2023-02-28T00:46:10.677Z,95970.16
2023-02-28T00:48:38.892Z,95973.47
2023-02-28T00:51:06.882Z,95977.41
2023-02-28T00:53:35.163Z,95973.25
2023-02-28T00:56:03.241Z,95977.22
2023-02-28T00:58:31.642Z,95977.94
2023-02-28T01:00:59.260Z,95979.09
2023-02-28T01:03:28.802Z,95975.34
2023-02-28T01:05:56.358Z,95975.75
2023-02-28T01:08:24.305Z,95973.47
2023-02-28T01:10:52.100Z,95966.63
2023-02-28T01:13:20.793Z,95968.06
2023-02-28T01:15:53.111Z,95975.56
2023-02-28T01:18:22.962Z,95972.03
2023-02-28T01:20:52.691Z,95969.84
2023-02-28T01:23:21.220Z,95971.19
2023-02-28T01:25:49.183Z,95965.31
2023-02-28T01:28:17.350Z,95973.16
2023-02-28T01:30:44.998Z,95966.03
2023-02-28T01:33:12.618Z,95967.19
2023-02-28T01:35:40.323Z,95963.13
2023-02-28T01:38:21.378Z,95957.13
2023-02-28T01:40:51.010Z,95961.50
2023-02-28T01:43:23.238Z,95958.19
2023-02-28T01:45:51.125Z,95953.94
2023-02-28T01:48:19.711Z,95961.28
2023-02-28T01:50:49.788Z,95948.69
2023-02-28T01:53:23.706Z,95953.03
2023-02-28T01:55:54.188Z,95949.81
2023-02-28T01:58:22.823Z,95953.34
2023-02-28T02:00:50.928Z,95945.19
2023-02-28T02:03:22.139Z,95930.66
2023-02-28T02:05:50.525Z,95933.16
2023-02-28T02:08:23.571Z,95931.94
2023-02-28T02:10:55.058Z,95929.72
2023-02-28T02:14:04.710Z,95930.78
2023-02-28T02:16:47.471Z,95927.91
2023-02-28T02:19:41.976Z,95930.88
2023-02-28T02:22:31.283Z,95926.44
2023-02-28T02:25:15.794Z,95917.44
2023-02-28T02:28:19.445Z,95920.75
2023-02-28T02:31:07.868Z,95924.06
2023-02-28T02:34:21.781Z,95920.03
2023-02-28T02:36:53.616Z,95928.19
2023-02-28T02:39:30.149Z,95926.88
2023-02-28T02:42:02.780Z,95925.50
2023-02-28T02:44:42.401Z,95923.34
2023-02-28T02:47:13.778Z,95924.16
2023-02-28T02:49:46.784Z,95923.44
2023-02-28T02:52:17.755Z,95928.59
2023-02-28T02:54:48.961Z,95929.66
2023-02-28T02:57:25.482Z,95932.75
2023-02-28T02:59:57.617Z,95926.13
2023-02-28T03:02:26.967Z,95931.47
2023-02-28T03:05:03.183Z,95925.09
2023-02-28T03:07:30.880Z,95924.34
2023-02-28T03:09:59.603Z,95922.56
2023-02-28T03:12:41.858Z,95926.72
2023-02-28T03:15:20.554Z,95921.63
2023-02-28T03:18:03.797Z,95919.03
2023-02-28T03:20:42.855Z,95930.53
2023-02-28T03:23:18.556Z,95931.63
2023-02-28T03:25:58.610Z,95939.00
2023-02-28T03:28:36.349Z,95934.94
2023-02-28T03:31:14.596Z,95938.06
2023-02-28T03:33:45.732Z,95939.34
2023-02-28T03:36:18.705Z,95951.34
2023-02-28T03:38:50.972Z,95945.94
2023-02-28T03:41:23.028Z,95955.38
2023-02-28T03:43:54.412Z,95949.06
2023-02-28T03:46:29.003Z,95947.59
2023-02-28T03:49:01.452Z,95954.25
2023-02-28T03:51:32.621Z,95953.91
2023-02-28T03:54:05.287Z,95949.81
2023-02-28T03:56:37.028Z,95945.78
2023-02-28T03:59:09.182Z,95947.00
2023-02-28T04:01:40.001Z,95945.16
2023-02-28T04:04:07.687Z,95956.75
2023-02-28T04:06:37.178Z,95960.25
2023-02-28T04:09:06.071Z,95960.59
2023-02-28T04:11:37.467Z,95959.47
2023-02-28T04:14:05.942Z,95963.59
2023-02-28T04:16:36.272Z,95963.56
2023-02-28T04:19:05.775Z,95960.38
2023-02-28T04:21:37.332Z,95961.53
2023-02-28T04:24:06.019Z,95954.19
2023-02-28T04:26:35.052Z,95962.66
2023-02-28T04:29:04.537Z,95963.91
2023-02-28T04:31:33.130Z,95966.91
2023-02-28T04:34:01.284Z,95963.00
2023-02-28T04:36:29.482Z,95959.06
2023-02-28T04:38:58.612Z,95956.56
2023-02-28T04:41:27.073Z,95956.78
2023-02-28T04:43:55.214Z,95956.56
2023-02-28T04:46:22.813Z,95961.97
2023-02-28T04:48:50.922Z,95960.72
2023-02-28T04:51:20.681Z,95973.97
2023-02-28T04:53:49.861Z,95975.53
2023-02-28T04:56:19.672Z,95970.97
2023-02-28T04:58:47.555Z,95966.50
2023-02-28T05:01:22.274Z,95965.25
2023-02-28T05:03:50.297Z,95970.22
2023-02-28T05:06:19.166Z,95966.50
2023-02-28T05:08:47.278Z,95965.78
2023-02-28T05:11:20.690Z,95966.28
2023-02-28T05:13:49.998Z,95968.75
2023-02-28T05:16:18.729Z,95964.63
2023-02-28T05:18:47.493Z,95964.84
2023-02-28T05:21:29.710Z,95964.03
2023-02-28T05:23:59.148Z,95964.22
2023-02-28T05:26:29.151Z,95960.59
2023-02-28T05:28:57.998Z,95960.50
2023-02-28T05:31:25.932Z,95964.44
2023-02-28T05:33:53.840Z,95966.59
2023-02-28T05:36:21.505Z,95964.63
2023-02-28T05:38:50.309Z,95961.53
2023-02-28T05:41:20.227Z,95964.63
2023-02-28T05:43:50.060Z,95968.88
2023-02-28T05:46:17.982Z,95976.53
2023-02-28T05:48:48.967Z,95986.19
2023-02-28T05:51:16.954Z,95974.59
2023-02-28T05:53:45.177Z,95978.19
2023-02-28T05:56:12.814Z,95974.81
2023-02-28T05:58:41.241Z,95983.59
2023-02-28T06:01:26.326Z,95987.00
2023-02-28T06:03:54.661Z,95985.75
2023-02-28T06:06:22.226Z,96000.91
2023-02-28T06:08:50.142Z,96001.63
2023-02-28T06:11:17.703Z,96000.69
2023-02-28T06:13:45.290Z,96004.59
2023-02-28T06:16:13.768Z,96003.38
2023-02-28T06:18:42.923Z,96008.03
2023-02-28T06:21:10.530Z,96009.38
2023-02-28T06:23:38.664Z,96030.69
2023-02-28T06:26:06.785Z,96032.28
2023-02-28T06:28:34.772Z,96022.94
2023-02-28T06:31:08.659Z,96038.16
2023-02-28T06:33:37.082Z,96042.09
2023-02-28T06:36:06.932Z,96041.69
2023-02-28T06:38:34.910Z,96048.34
2023-02-28T06:41:03.563Z,96046.47
2023-02-28T06:43:33.875Z,96042.31
2023-02-28T06:46:03.389Z,96038.81
2023-02-28T06:48:31.334Z,96036.09
2023-02-28T06:51:04.642Z,96038.16
2023-02-28T06:53:34.411Z,96036.50
2023-02-28T06:56:06.518Z,96036.72
2023-02-28T06:58:34.772Z,96035.06
2023-02-28T07:01:02.905Z,96037.13
2023-02-28T07:03:33.963Z,96036.72
2023-02-28T07:06:02.109Z,96039.81
2023-02-28T07:08:30.641Z,96040.44
2023-02-28T07:11:00.097Z,96041.19
2023-02-28T07:13:28.853Z,96041.91
2023-02-28T07:15:58.163Z,96039.00
2023-02-28T07:18:26.236Z,96040.03
2023-02-28T07:20:55.139Z,96046.47
2023-02-28T07:23:23.120Z,96047.72
2023-02-28T07:25:52.150Z,96054.44
2023-02-28T07:28:21.512Z,96054.75
2023-02-28T07:30:49.367Z,96059.72
2023-02-28T07:33:17.160Z,96061.69
2023-02-28T07:35:45.930Z,96055.59
2023-02-28T07:38:14.621Z,96066.25
2023-02-28T07:40:42.505Z,96063.25
2023-02-28T07:43:10.181Z,96068.22
2023-02-28T07:45:40.100Z,96072.25
2023-02-28T07:48:07.832Z,96062.72
2023-02-28T07:50:36.223Z,96065.50
2023-02-28T07:53:03.927Z,96065.09
2023-02-28T07:55:32.209Z,96068.00
2023-02-28T07:58:00.624Z,96070.41
2023-02-28T08:00:30.337Z,96072.56
2023-02-28T08:02:59.797Z,96062.50
2023-02-28T08:05:27.753Z,96063.66
2023-02-28T08:07:55.653Z,96072.38
2023-02-28T08:10:23.773Z,96082.13
2023-02-28T08:12:51.582Z,96080.34
2023-02-28T08:15:19.787Z,96076.31
2023-02-28T08:17:47.329Z,96077.13
2023-02-28T08:20:16.826Z,96081.44
2023-02-28T08:22:46.002Z,96081.97
2023-02-28T08:25:14.006Z,96087.69
2023-02-28T08:27:42.114Z,96080.91
2023-02-28T08:30:12.250Z,96084.97
2023-02-28T08:32:40.309Z,96090.78
2023-02-28T08:35:10.081Z,96088.19
2023-02-28T08:37:39.352Z,96088.47
2023-02-28T08:40:08.659Z,96098.44
2023-02-28T08:42:36.628Z,96099.06
2023-02-28T08:45:05.378Z,96094.06
2023-02-28T08:47:32.956Z,96098.44
2023-02-28T08:50:00.838Z,96099.56
2023-02-28T08:52:28.409Z,96100.28
2023-02-28T08:54:58.352Z,96106.88
2023-02-28T08:57:27.109Z,96107.72
2023-02-28T08:59:55.509Z,96104.94
2023-02-28T09:02:23.096Z,96104.53
2023-02-28T09:04:51.706Z,96111.25
2023-02-28T09:07:19.255Z,96105.75
2023-02-28T09:09:55.823Z,96104.22
2023-02-28T09:12:25.850Z,96119.31
2023-02-28T09:14:57.861Z,96114.44
2023-02-28T09:17:30.414Z,96114.13
2023-02-28T09:19:58.981Z,96109.63
2023-02-28T09:22:28.063Z,96112.34
2023-02-28T09:24:55.630Z,96130.50
2023-02-28T09:27:25.051Z,96128.41
2023-02-28T09:29:52.688Z,96131.09
2023-02-28T09:32:21.137Z,96124.31
2023-02-28T09:34:48.732Z,96127.31
2023-02-28T09:37:16.543Z,96128.97
2023-02-28T09:39:44.134Z,96133.78
2023-02-28T09:42:23.784Z,96149.59
2023-02-28T09:44:53.107Z,96140.69
2023-02-28T09:47:29.140Z,96148.19
2023-02-28T09:50:00.417Z,96136.28
2023-02-28T09:52:31.972Z,96151.75
2023-02-28T09:55:03.758Z,96148.44
2023-02-28T09:57:37.344Z,96155.56
2023-02-28T10:00:16.862Z,96152.66
2023-02-28T10:03:00.906Z,96146.72
2023-02-28T10:05:33.244Z,96155.75
2023-02-28T10:08:08.869Z,96155.75
2023-02-28T10:10:40.862Z,96157.44
2023-02-28T10:13:17.236Z,96167.47
2023-02-28T10:15:49.668Z,96160.91
2023-02-28T10:18:25.484Z,96155.25
2023-02-28T10:20:55.135Z,96164.47
2023-02-28T10:23:25.792Z,96168.59
2023-02-28T10:25:59.292Z,96168.69
2023-02-28T10:28:28.187Z,96172.44
2023-02-28T10:30:59.598Z,96163.06
2023-02-28T10:33:30.913Z,96160.91
2023-02-28T10:36:00.170Z,96163.63
2023-02-28T10:38:31.106Z,96161.44
2023-02-28T10:41:09.806Z,96156.03
2023-02-28T10:43:38.633Z,96160.59
2023-02-28T10:46:16.313Z,96154.19
2023-02-28T10:48:48.931Z,96158.81
2023-02-28T10:51:20.414Z,96155.19
2023-02-28T10:54:01.233Z,96165.31
2023-02-28T10:56:29.987Z,96165.34
2023-02-28T10:59:00.509Z,96161.31
2023-02-28T11:01:40.400Z,96166.06
2023-02-28T11:04:20.298Z,96166.75
2023-02-28T11:06:49.348Z,96157.75
2023-02-28T11:09:24.768Z,96158.44
2023-02-28T11:11:53.702Z,96156.81
2023-02-28T11:14:23.959Z,96168.66
2023-02-28T11:16:54.242Z,96149.78
2023-02-28T11:19:27.132Z,96158.38
2023-02-28T11:21:59.467Z,96165.75
2023-02-28T11:24:31.756Z,96165.03
2023-02-28T11:27:00.171Z,96164.78
2023-02-28T11:29:29.812Z,96160.56
2023-02-28T11:32:13.268Z,96155.06
2023-02-28T11:34:42.718Z,96149.56
2023-02-28T11:37:15.687Z,96155.56
2023-02-28T11:39:43.621Z,96146.28
2023-02-28T11:42:34.950Z,96142.47
2023-02-28T11:45:18.898Z,96140.50
2023-02-28T11:47:55.223Z,96147.09
2023-02-28T11:50:38.672Z,96139.06
2023-02-28T11:53:16.138Z,96139.06
2023-02-28T11:55:47.995Z,96136.50
2023-02-28T11:58:35.364Z,96137.16
2023-02-28T12:01:16.946Z,96138.78
2023-02-28T12:04:00.788Z,96131.53
2023-02-28T12:06:35.283Z,96134.63
2023-02-28T12:09:15.227Z,96131.25
2023-02-28T12:11:53.041Z,96134.91
2023-02-28T12:14:36.445Z,96129.78
2023-02-28T12:17:18.348Z,96117.72
2023-02-28T12:19:52.901Z,96118.22
2023-02-28T12:22:32.275Z,96115.72
2023-02-28T12:25:25.499Z,96120.19
2023-02-28T12:27:55.240Z,96119.47
2023-02-28T12:30:27.238Z,96123.78
2023-02-28T12:32:58.858Z,96113.56
2023-02-28T12:35:34.345Z,96112.34
2023-02-28T12:38:07.966Z,96115.47
2023-02-28T12:40:45.562Z,96105.88
2023-02-28T12:43:16.040Z,96101.84
2023-02-28T12:45:49.621Z,96108.31
2023-02-28T12:48:22.615Z,96104.97
2023-02-28T12:50:52.383Z,96110.25
2023-02-28T12:53:28.446Z,96098.81
2023-02-28T12:56:09.539Z,96097.78
2023-02-28T12:58:41.657Z,96102.16
2023-02-28T13:01:32.064Z,96098.66
2023-02-28T13:04:28.772Z,96098.78
2023-02-28T13:07:13.575Z,96097.22
2023-02-28T13:09:42.368Z,96095.06
2023-02-28T13:12:16.497Z,96089.41
2023-02-28T13:14:45.278Z,96091.47
2023-02-28T13:17:14.879Z,96090.13
2023-02-28T13:19:46.169Z,96085.47
2023-02-28T13:22:21.597Z,96086.22
2023-02-28T13:24:52.546Z,96088.06
2023-02-28T13:27:37.696Z,96088.22
2023-02-28T13:30:43.474Z,96087.22
2023-02-28T13:33:26.807Z,96088.75
2023-02-28T13:36:24.748Z,96087.56
2023-02-28T13:38:56.646Z,96100.41
2023-02-28T13:41:48.651Z,96085.50
2023-02-28T13:44:19.622Z,96087.44
2023-02-28T13:47:27.055Z,96087.59
2023-02-28T13:49:55.954Z,96093.06
2023-02-28T13:52:26.088Z,96092.91
2023-02-28T13:55:19.222Z,96091.66
2023-02-28T13:58:01.216Z,96084.63
2023-02-28T14:00:43.641Z,96091.75
2023-02-28T14:03:31.316Z,96081.59
2023-02-28T14:06:18.902Z,96081.94
2023-02-28T14:08:57.423Z,96091.00
2023-02-28T14:11:33.247Z,96088.69
2023-02-28T14:14:02.383Z,96089.22
2023-02-28T14:16:40.174Z,96084.38
2023-02-28T14:19:14.214Z,96090.19
2023-02-28T14:21:52.917Z,96094.97
2023-02-28T14:24:53.952Z,96088.94
2023-02-28T14:27:44.290Z,96091.28
2023-02-28T14:30:33.260Z,96093.19
2023-02-28T14:33:14.298Z,96095.63
2023-02-28T14:35:53.097Z,96092.91
2023-02-28T14:38:25.273Z,96096.88
2023-02-28T14:40:55.377Z,96099.22
2023-02-28T14:43:27.056Z,96094.00
2023-02-28T14:45:59.093Z,96091.00
2023-02-28T14:48:28.192Z,96096.44
2023-02-28T14:50:58.875Z,96096.50
2023-02-28T14:53:29.378Z,96092.13
2023-02-28T14:55:57.698Z,96088.25
2023-02-28T14:58:29.117Z,96094.31
2023-02-28T15:00:59.148Z,96095.41
2023-02-28T15:03:33.240Z,96090.47
2023-02-28T15:06:03.446Z,96091.28
2023-02-28T15:08:36.048Z,96101.75
2023-02-28T15:11:06.978Z,96102.81
2023-02-28T15:13:42.273Z,96102.28
2023-02-28T15:16:14.360Z,96094.28
2023-02-28T15:18:49.077Z,96095.41
2023-02-28T15:21:20.129Z,96086.06
2023-02-28T15:23:51.562Z,96092.38
2023-02-28T15:26:22.724Z,96092.94
2023-02-28T15:28:54.834Z,96096.50
2023-02-28T15:31:28.270Z,96101.88
2023-02-28T15:33:57.800Z,96105.72
2023-02-28T15:36:31.169Z,96101.03
2023-02-28T15:39:10.547Z,96101.03
2023-02-28T15:41:43.250Z,96112.59
2023-02-28T15:44:27.716Z,96113.84
2023-02-28T15:47:00.683Z,96111.94
2023-02-28T15:49:28.409Z,96117.31
2023-02-28T15:51:59.813Z,96117.69
2023-02-28T15:54:32.542Z,96121.56
2023-02-28T15:57:07.199Z,96115.22
2023-02-28T15:59:38.075Z,96114.53
2023-02-28T16:02:18.611Z,96112.91
2023-02-28T16:05:00.833Z,96113.03
2023-02-28T16:07:29.235Z,96112.91
2023-02-28T16:09:56.915Z,96118.41
2023-02-28T16:12:28.905Z,96115.88
2023-02-28T16:14:59.654Z,96108.03
2023-02-28T16:17:29.715Z,96116.31
2023-02-28T16:19:57.941Z,96117.69
2023-02-28T16:22:26.089Z,96124.16
2023-02-28T16:24:53.876Z,96128.81
2023-02-28T16:27:27.482Z,96126.47
2023-02-28T16:29:55.560Z,96125.50
2023-02-28T16:32:24.955Z,96127.06
2023-02-28T16:34:52.639Z,96129.25
2023-02-28T16:37:20.762Z,96129.25
2023-02-28T16:39:50.328Z,96126.25
2023-02-28T16:42:27.296Z,96129.53
2023-02-28T16:44:56.203Z,96127.91
2023-02-28T16:47:27.923Z,96134.34
2023-02-28T16:49:55.512Z,96127.31
2023-02-28T16:52:23.104Z,96133.91
2023-02-28T16:54:50.677Z,96128.38
2023-02-28T16:57:22.963Z,96135.44
2023-02-28T16:59:51.970Z,96146.34
2023-02-28T17:02:21.737Z,96139.38
2023-02-28T17:04:50.877Z,96138.31
2023-02-28T17:07:18.743Z,96144.56
2023-02-28T17:09:47.132Z,96144.97
2023-02-28T17:12:15.402Z,96153.69
2023-02-28T17:14:43.001Z,96153.06
2023-02-28T17:17:17.573Z,96156.53
2023-02-28T17:19:45.176Z,96157.38
2023-02-28T17:22:14.526Z,96155.78
2023-02-28T17:24:42.255Z,96162.41
2023-02-28T17:27:13.444Z,96155.09
2023-02-28T17:29:41.311Z,96164.38
2023-02-28T17:32:17.737Z,96162.38
2023-02-28T17:34:46.897Z,96166.03
2023-02-28T17:37:16.136Z,96159.53
2023-02-28T17:39:43.759Z,96166.28
2023-02-28T17:42:11.855Z,96166.75
2023-02-28T17:44:39.590Z,96160.84
2023-02-28T17:47:07.587Z,96169.84
2023-02-28T17:49:35.574Z,96162.88
2023-02-28T17:52:03.382Z,96157.28
2023-02-28T17:54:32.777Z,96164.63
2023-02-28T17:57:01.795Z,96164.84
2023-02-28T17:59:34.155Z,96163.44
2023-02-28T18:02:02.612Z,96165.31
2023-02-28T18:04:30.275Z,96170.19
2023-02-28T18:07:01.108Z,96167.91
2023-02-28T18:09:29.109Z,96165.06
2023-02-28T18:11:58.988Z,96171.34
2023-02-28T18:14:27.466Z,96180.78
2023-02-28T18:16:57.749Z,96174.44
2023-02-28T18:19:25.651Z,96172.88
2023-02-28T18:21:55.040Z,96175.47
2023-02-28T18:24:24.373Z,96174.06
2023-02-28T18:26:52.412Z,96170.84
2023-02-28T18:29:23.503Z,96172.16
2023-02-28T18:31:53.820Z,96176.72
2023-02-28T18:34:22.566Z,96169.28
2023-02-28T18:36:53.485Z,96177.22
2023-02-28T18:39:21.347Z,96180.88
2023-02-28T18:41:48.957Z,96180.88
2023-02-28T18:44:20.204Z,96174.72
2023-02-28T18:46:50.124Z,96163.13
2023-02-28T18:49:18.393Z,96164.09
2023-02-28T18:51:46.599Z,96168.09
2023-02-28T18:54:16.277Z,96164.94
2023-02-28T18:56:44.503Z,96167.19
2023-02-28T18:59:12.934Z,96162.72
2023-02-28T19:01:40.954Z,96149.94
2023-02-28T19:04:14.404Z,96158.25
2023-02-28T19:06:42.835Z,96155.16
2023-02-28T19:09:11.119Z,96150.88
2023-02-28T19:11:39.295Z,96153.16
2023-02-28T19:14:09.824Z,96154.91
2023-02-28T19:16:37.708Z,96157.88
2023-02-28T19:19:05.993Z,96162.59
2023-02-28T19:21:36.496Z,96158.00
2023-02-28T19:24:05.174Z,96161.28
2023-02-28T19:26:32.744Z,96162.22
2023-02-28T19:29:03.462Z,96160.09
2023-02-28T19:31:31.685Z,96157.50
2023-02-28T19:33:59.481Z,96158.44
2023-02-28T19:36:27.504Z,96152.63
2023-02-28T19:38:56.438Z,96151.69
2023-02-28T19:41:24.298Z,96152.78
2023-02-28T19:43:54.211Z,96148.66
2023-02-28T19:46:21.845Z,96165.31
2023-02-28T19:48:49.698Z,96155.41
2023-02-28T19:53:50.344Z,96160.34
2023-02-28T19:56:19.265Z,96153.75
2023-02-28T19:58:47.194Z,96155.63
2023-02-28T20:01:17.826Z,96152.31
2023-02-28T20:03:48.966Z,96148.53
2023-02-28T20:06:16.957Z,96145.94
2023-02-28T20:08:45.303Z,96144.63
2023-02-28T20:11:15.542Z,96140.09
2023-02-28T20:13:45.331Z,96143.09
2023-02-28T20:16:14.521Z,96147.34
2023-02-28T20:18:44.443Z,96139.69
2023-02-28T20:21:13.871Z,96143.31
2023-02-28T20:23:43.555Z,96147.34
2023-02-28T20:26:11.602Z,96146.53
2023-02-28T20:28:40.324Z,96146.53
2023-02-28T20:31:14.393Z,96146.41
2023-02-28T20:33:42.691Z,96144.53
2023-02-28T20:36:12.436Z,96148.06
2023-02-28T20:38:43.515Z,96153.28
2023-02-28T20:41:11.379Z,96150.81
2023-02-28T20:43:39.780Z,96154.22
2023-02-28T20:46:07.556Z,96154.22
2023-02-28T20:48:37.178Z,96147.13
2023-02-28T20:51:06.240Z,96147.72
2023-02-28T20:53:35.783Z,96141.94
2023-02-28T20:56:05.858Z,96153.75
2023-02-28T20:58:37.345Z,96151.84
2023-02-28T21:01:15.818Z,96142.38
2023-02-28T21:03:46.381Z,96147.97
2023-02-28T21:06:15.398Z,96140.84
2023-02-28T21:08:43.723Z,96144.28
2023-02-28T21:11:14.065Z,96143.47
2023-02-28T21:13:43.144Z,96144.78
2023-02-28T21:16:13.262Z,96143.81
2023-02-28T21:18:41.401Z,96146.63
2023-02-28T21:21:14.015Z,96135.19
2023-02-28T21:23:42.483Z,96141.22
2023-02-28T21:26:12.436Z,96132.22
2023-02-28T21:28:43.914Z,96143.00
2023-02-28T21:31:14.186Z,96141.69
2023-02-28T21:33:41.818Z,96143.09
2023-02-28T21:36:14.212Z,96141.22
2023-02-28T21:38:43.105Z,96138.13
2023-02-28T21:41:13.550Z,96137.41
2023-02-28T21:43:43.718Z,96136.72
2023-02-28T21:46:13.308Z,96139.56
2023-02-28T21:48:41.461Z,96134.94
2023-02-28T21:51:13.199Z,96128.06
2023-02-28T21:53:42.012Z,96130.91
2023-02-28T21:56:14.456Z,96125.81
2023-02-28T21:58:42.374Z,96123.22
2023-02-28T22:01:12.207Z,96120.88
2023-02-28T22:03:40.610Z,96126.06
2023-02-28T22:06:15.092Z,96128.28
2023-02-28T22:08:43.348Z,96128.41
2023-02-28T22:11:11.822Z,96127.72
2023-02-28T22:13:40.303Z,96114.00
2023-02-28T22:16:10.873Z,96120.63
2023-02-28T22:18:39.394Z,96125.00
2023-02-28T22:21:07.907Z,96122.50
2023-02-28T22:23:38.135Z,96133.16
2023-02-28T22:26:07.787Z,96123.72
2023-02-28T22:28:36.456Z,96127.97
2023-02-28T22:31:14.156Z,96124.28
2023-02-28T22:33:41.862Z,96114.25
2023-02-28T22:36:12.149Z,96119.94
2023-02-28T22:38:41.891Z,96124.75
2023-02-28T22:41:11.734Z,96128.69
2023-02-28T22:43:40.322Z,96132.09
2023-02-28T22:46:10.250Z,96137.44
2023-02-28T22:48:38.289Z,96130.56
2023-02-28T22:51:08.663Z,96119.09
2023-02-28T22:53:36.901Z,96119.09
2023-02-28T22:56:07.900Z,96114.59
2023-02-28T22:58:36.098Z,96118.28
2023-02-28T23:01:08.481Z,96114.22
2023-02-28T23:03:36.243Z,96116.63
2023-02-28T23:06:13.594Z,96115.88
2023-02-28T23:08:41.573Z,96121.00
2023-02-28T23:11:12.198Z,96113.78
2023-02-28T23:13:39.822Z,96126.06
2023-02-28T23:16:09.199Z,96123.22
2023-02-28T23:18:36.817Z,96114.47
2023-02-28T23:21:05.190Z,96118.97
2023-02-28T23:23:32.737Z,96131.72
2023-02-28T23:26:00.300Z,96124.28
2023-02-28T23:28:31.235Z,96129.84
2023-02-28T23:31:04.697Z,96126.06
2023-02-28T23:33:32.770Z,96129.00
2023-02-28T23:36:08.275Z,96118.50
2023-02-28T23:38:35.861Z,96117.31
2023-02-28T23:41:03.754Z,96106.91
2023-02-28T23:43:32.648Z,96115.41
2023-02-28T23:46:01.124Z,96115.91
2023-02-28T23:48:28.763Z,96116.34
2023-02-28T23:51:00.980Z,96118.97
2023-02-28T23:53:32.386Z,96114.00
2023-02-28T23:56:01.830Z,96111.63
2023-02-28T23:58:30.211Z,96112.47
